NORTHERN QUEENS  -  Freeze Warning Freeze Warning        SOUTHERN QUEENS  -  Freeze Warning Freeze Warning      

Active alerts

Northern Queens
  Details for Northern Queens Freeze Warning
Southern Queens
  Details for Southern Queens Freeze Warning


WXM80 ListenWXM80 Stop

You find our weather info also at:

UK Metoffice

WeatherCloud

Weather Underground

Northeastern Weather Network

AWEKAS

Citizen Weather Observer Program (CWOP)

HAMweather, WeatherForYou, PWS Weather


Weather Underground History page Text

Daily Summary for January 21, 2018 Units:  English    Metric   Both
« Previous Day
Next Day »
Daily Weekly Monthly Yearly Custom
  High: Low: Average:
Temperature: 47.4 °F 34.6 °F 40.8 °F
Dew Point: 36.2 °F 28.8 °F 32 °F
Humidity: 84 % 57 % 71 %
Wind Speed: 2.8 mph 0.0 mph 0.7 mph
Wind Gust: 7.0 mph - -
Wind:- - WSW
Pressure: 29.95 in 29.79 in -
Precipitation: 0.00 in    
Historical Graphs
 
 
Tabular Data for January 21, 2018
Time Temperature Dew Point Pressure Wind Wind Speed Wind Gust Humidity Rainfall Rate (Hourly)
00:02 39.6 °F 29.9 °F 29.79 in SW 0.8 mph 3.5 mph 68 % 0.00 in
00:07 39.6 °F 29.9 °F 29.79 in SW 1.3 mph 3.5 mph 68 % 0.00 in
00:12 39.5 °F 29.8 °F 29.80 in SSW 1.5 mph 3.5 mph 68 % 0.00 in
00:17 39.3 °F 30.0 °F 29.79 in SSW 1.1 mph 3.5 mph 69 % 0.00 in
00:23 39.2 °F 29.9 °F 29.80 in SSW 1.5 mph 3.5 mph 69 % 0.00 in
00:28 38.9 °F 29.6 °F 29.80 in SSW 2.5 mph 3.5 mph 69 % 0.00 in
00:33 38.7 °F 29.8 °F 29.79 in SSW 2.0 mph 3.5 mph 70 % 0.00 in
00:38 38.6 °F 29.7 °F 29.80 in SSW 2.1 mph 3.5 mph 70 % 0.00 in
00:43 38.4 °F 29.5 °F 29.80 in SSW 2.7 mph 3.5 mph 70 % 0.00 in
00:48 38.2 °F 29.3 °F 29.80 in SSW 2.1 mph 3.5 mph 70 % 0.00 in
00:53 38.0 °F 29.4 °F 29.80 in SSW 0.7 mph 2.0 mph 71 % 0.00 in
01:03 37.8 °F 29.2 °F 29.80 in SSW 1.1 mph 2.3 mph 71 % 0.00 in
01:08 37.7 °F 29.5 °F 29.80 in SSW 1.9 mph 2.3 mph 72 % 0.00 in
01:13 37.7 °F 29.5 °F 29.80 in SW 1.2 mph 3.5 mph 72 % 0.00 in
01:23 37.7 °F 29.8 °F 29.79 in SW 2.1 mph 3.5 mph 73 % 0.00 in
01:28 37.6 °F 29.7 °F 29.80 in SSW 2.3 mph 3.5 mph 73 % 0.00 in
01:33 37.6 °F 29.7 °F 29.80 in SW 2.2 mph 3.5 mph 73 % 0.00 in
01:38 37.5 °F 29.6 °F 29.80 in SW 1.7 mph 3.5 mph 73 % 0.00 in
01:43 37.5 °F 29.6 °F 29.81 in SW 1.6 mph 2.3 mph 73 % 0.00 in
01:48 37.4 °F 29.5 °F 29.81 in SW 1.7 mph 3.5 mph 73 % 0.00 in
01:53 37.4 °F 29.9 °F 29.81 in SW 1.9 mph 3.5 mph 74 % 0.00 in
01:58 37.4 °F 29.9 °F 29.81 in SSW 2.5 mph 3.5 mph 74 % 0.00 in
02:03 37.4 °F 29.9 °F 29.81 in SW 2.2 mph 3.5 mph 74 % 0.00 in
02:08 37.4 °F 29.9 °F 29.81 in SSW 2.5 mph 3.5 mph 74 % 0.00 in
02:13 37.3 °F 29.8 °F 29.82 in SSW 2.6 mph 3.5 mph 74 % 0.00 in
02:18 37.3 °F 29.8 °F 29.82 in SW 1.9 mph 3.5 mph 74 % 0.00 in
02:24 37.3 °F 29.8 °F 29.82 in SW 0.6 mph 2.3 mph 74 % 0.00 in
02:29 37.3 °F 29.8 °F 29.82 in SW 1.3 mph 3.5 mph 74 % 0.00 in
02:34 37.2 °F 30.0 °F 29.83 in SW 0.9 mph 3.5 mph 75 % 0.00 in
02:39 37.1 °F 29.6 °F 29.82 in SW 0.3 mph 1.2 mph 74 % 0.00 in
02:44 37.0 °F 29.5 °F 29.82 in SW 0.5 mph 2.0 mph 74 % 0.00 in
02:49 36.9 °F 29.4 °F 29.82 in SW 0.6 mph 1.2 mph 74 % 0.00 in
02:54 36.8 °F 29.6 °F 29.82 in SW 0.2 mph 2.3 mph 75 % 0.00 in
02:59 36.6 °F 29.4 °F 29.82 in SW 0.3 mph 1.2 mph 75 % 0.00 in
03:04 36.4 °F 29.2 °F 29.82 in Calm     75 % 0.00 in
03:09 36.3 °F 29.1 °F 29.82 in SW 0.2 mph 1.2 mph 75 % 0.00 in
03:10 36.2 °F 29.0 °F 29.82 in SW 0.3 mph 1.2 mph 75 % 0.00 in
03:20 35.9 °F 29.1 °F 29.81 in Calm     76 % 0.00 in
03:25 35.8 °F 28.9 °F 29.82 in Calm   2.0 mph 76 % 0.00 in
03:30 35.6 °F 28.8 °F 29.82 in Calm   2.0 mph 76 % 0.00 in
03:35 35.5 °F 29.0 °F 29.81 in SW 1.0 mph 2.0 mph 77 % 0.00 in
03:40 35.4 °F 29.2 °F 29.82 in SW 1.0 mph 4.0 mph 78 % 0.00 in
03:45 35.3 °F 29.1 °F 29.82 in SW 1.0 mph 3.0 mph 78 % 0.00 in
03:50 35.2 °F 29.0 °F 29.82 in SSW 1.0 mph 3.0 mph 78 % 0.00 in
03:55 35.1 °F 29.2 °F 29.82 in Calm   2.0 mph 79 % 0.00 in
04:06 35.1 °F 29.6 °F 29.82 in Calm   7.0 mph 80 % 0.00 in
04:11 35.3 °F 30.1 °F 29.82 in Calm   5.0 mph 81 % 0.00 in
04:16 35.5 °F 29.9 °F 29.82 in SW 2.0 mph 4.0 mph 80 % 0.00 in
04:21 35.6 °F 30.0 °F 29.83 in SSW 1.3 mph 2.3 mph 80 % 0.00 in
04:26 35.7 °F 30.1 °F 29.83 in SSW 1.0 mph 3.0 mph 80 % 0.00 in
04:31 35.7 °F 30.1 °F 29.83 in SSW 2.0 mph 4.0 mph 80 % 0.00 in
04:36 35.8 °F 30.2 °F 29.83 in SSW 1.0 mph 3.0 mph 80 % 0.00 in
04:41 35.9 °F 30.0 °F 29.83 in SSW 1.5 mph 2.3 mph 79 % 0.00 in
04:46 35.9 °F 30.0 °F 29.83 in Calm   2.0 mph 79 % 0.00 in
04:51 35.9 °F 30.0 °F 29.84 in SSW 2.0 mph 3.0 mph 79 % 0.00 in
04:55 36.0 °F 30.1 °F 29.84 in SW 0.2 mph 1.0 mph 79 % 0.00 in
05:01 36.0 °F 30.1 °F 29.84 in West 2.0 mph 3.5 mph 79 % 0.00 in
05:06 36.1 °F 30.2 °F 29.84 in WNW 2.3 mph 3.5 mph 79 % 0.00 in
05:11 36.1 °F 30.2 °F 29.84 in WSW 1.4 mph 3.5 mph 79 % 0.00 in
05:16 36.2 °F 30.3 °F 29.84 in WSW 2.1 mph 4.0 mph 79 % 0.00 in
05:21 36.4 °F 30.5 °F 29.84 in WSW 0.1 mph 2.3 mph 79 % 0.00 in
05:26 36.5 °F 30.6 °F 29.85 in WSW 0.4 mph 2.3 mph 79 % 0.00 in
05:31 36.6 °F 30.7 °F 29.84 in Calm   1.2 mph 79 % 0.00 in
05:36 36.6 °F 30.7 °F 29.85 in Calm     79 % 0.00 in
05:41 36.7 °F 30.5 °F 29.85 in West 0.8 mph 3.5 mph 78 % 0.00 in
05:46 36.7 °F 30.5 °F 29.85 in Calm     78 % 0.00 in
05:51 36.7 °F 30.5 °F 29.86 in WNW 1.5 mph 3.5 mph 78 % 0.00 in
05:56 36.6 °F 30.4 °F 29.86 in West 1.6 mph 2.3 mph 78 % 0.00 in
06:01 36.6 °F 30.4 °F 29.87 in West 0.5 mph 2.3 mph 78 % 0.00 in
06:06 36.5 °F 30.3 °F 29.86 in WSW 1.7 mph 2.3 mph 78 % 0.00 in
06:11 36.4 °F 30.2 °F 29.87 in SW 1.6 mph 2.3 mph 78 % 0.00 in
06:16 36.2 °F 30.0 °F 29.87 in SW 0.6 mph 1.2 mph 78 % 0.00 in
06:21 36.1 °F 29.9 °F 29.87 in SW 0.7 mph 2.3 mph 78 % 0.00 in
06:26 36.0 °F 30.1 °F 29.88 in West 1.9 mph 3.5 mph 79 % 0.00 in
06:31 35.9 °F 30.0 °F 29.87 in West 0.6 mph 1.2 mph 79 % 0.00 in
06:36 35.7 °F 30.1 °F 29.88 in West 1.1 mph 3.0 mph 80 % 0.00 in
06:41 35.6 °F 30.0 °F 29.88 in SW 0.2 mph 1.2 mph 80 % 0.00 in
06:46 35.5 °F 29.9 °F 29.89 in SW 0.4 mph 2.0 mph 80 % 0.00 in
06:52 35.3 °F 30.1 °F 29.89 in SW 1.1 mph 2.3 mph 81 % 0.00 in
06:57 35.2 °F 30.0 °F 29.89 in SW 0.8 mph 3.5 mph 81 % 0.00 in
07:02 35.1 °F 29.9 °F 29.89 in SW 1.0 mph 3.5 mph 81 % 0.00 in
07:07 34.9 °F 29.7 °F 29.89 in SW 0.8 mph 2.3 mph 81 % 0.00 in
07:12 34.8 °F 29.9 °F 29.90 in SW 1.1 mph 2.3 mph 82 % 0.00 in
07:17 34.7 °F 29.8 °F 29.90 in SW 2.2 mph 3.5 mph 82 % 0.00 in
07:22 34.7 °F 29.8 °F 29.90 in SW 1.8 mph 3.5 mph 82 % 0.00 in
07:27 34.6 °F 30.0 °F 29.90 in SW 1.7 mph 3.5 mph 83 % 0.00 in
07:32 34.6 °F 30.0 °F 29.90 in SW 0.9 mph 2.3 mph 83 % 0.00 in
07:37 34.6 °F 30.0 °F 29.90 in SW 0.3 mph 1.2 mph 83 % 0.00 in
07:42 34.7 °F 30.1 °F 29.91 in SW 1.1 mph 3.5 mph 83 % 0.00 in
07:47 34.9 °F 30.6 °F 29.91 in SW 2.2 mph 3.5 mph 84 % 0.00 in
07:52 35.1 °F 30.8 °F 29.91 in SW 1.5 mph 3.0 mph 84 % 0.00 in
07:57 35.3 °F 30.7 °F 29.92 in Calm   1.2 mph 83 % 0.00 in
08:02 35.5 °F 30.8 °F 29.91 in WSW 0.5 mph 2.3 mph 83 % 0.00 in
08:07 35.8 °F 31.1 °F 29.91 in SW 0.8 mph 3.0 mph 83 % 0.00 in
08:12 36.1 °F 31.4 °F 29.91 in WSW 1.4 mph 3.5 mph 83 % 0.00 in
08:17 36.4 °F 31.4 °F 29.92 in Calm     82 % 0.00 in
08:22 36.8 °F 31.8 °F 29.92 in Calm   1.2 mph 82 % 0.00 in
08:27 37.1 °F 31.8 °F 29.92 in Calm     81 % 0.00 in
08:32 37.5 °F 31.9 °F 29.93 in Calm   1.2 mph 80 % 0.00 in
08:37 37.9 °F 32.0 °F 29.92 in Calm   3.5 mph 79 % 0.00 in
08:42 38.3 °F 32.0 °F 29.92 in Calm     78 % 0.00 in
08:48 38.6 °F 32.3 °F 29.93 in Calm     78 % 0.00 in
08:53 38.9 °F 33.3 °F 29.93 in WNW 0.5 mph 1.0 mph 80 % 0.00 in
08:58 39.2 °F 33.2 °F 29.93 in NNW 1.2 mph 2.3 mph 79 % 0.00 in
09:03 39.6 °F 33.3 °F 29.93 in NNW 0.8 mph 2.3 mph 78 % 0.00 in
09:08 39.8 °F 33.5 °F 29.93 in NE 2.1 mph 4.6 mph 78 % 0.00 in
09:13 40.1 °F 33.8 °F 29.93 in NNE 1.8 mph 3.5 mph 78 % 0.00 in
09:18 40.0 °F 33.7 °F 29.94 in Calm     78 % 0.00 in
09:23 40.1 °F 34.1 °F 29.94 in Calm     79 % 0.00 in
09:28 40.3 °F 34.6 °F 29.95 in NNE 0.2 mph 1.2 mph 80 % 0.00 in
09:33 40.5 °F 34.2 °F 29.95 in North 1.6 mph 3.5 mph 78 % 0.00 in
09:38 40.7 °F 34.0 °F 29.94 in Calm     77 % 0.00 in
09:43 40.9 °F 33.6 °F 29.94 in NW 1.5 mph 3.5 mph 75 % 0.00 in
09:48 41.1 °F 33.4 °F 29.94 in NW 0.9 mph 2.3 mph 74 % 0.00 in
09:53 41.4 °F 33.4 °F 29.94 in WNW 1.1 mph 4.0 mph 73 % 0.00 in
09:58 41.8 °F 33.4 °F 29.94 in West 0.9 mph 3.0 mph 72 % 0.00 in
10:03 42.3 °F 33.6 °F 29.94 in Calm     71 % 0.00 in
10:08 42.9 °F 33.4 °F 29.94 in Calm   1.2 mph 69 % 0.00 in
10:13 43.7 °F 33.8 °F 29.95 in WNW 0.2 mph 2.3 mph 68 % 0.00 in
10:18 44.4 °F 33.7 °F 29.95 in NNE 1.0 mph 2.3 mph 66 % 0.00 in
10:23 45.3 °F 33.8 °F 29.95 in NNW 1.1 mph 4.0 mph 64 % 0.00 in
10:28 45.8 °F 34.3 °F 29.95 in NNE 0.9 mph 2.3 mph 64 % 0.00 in
10:33 46.3 °F 34.0 °F 29.95 in North 2.5 mph 3.5 mph 62 % 0.00 in
10:38 46.5 °F 33.8 °F 29.95 in NNW 0.7 mph 3.5 mph 61 % 0.00 in
10:44 46.6 °F 33.4 °F 29.95 in NNW 2.0 mph 3.5 mph 60 % 0.00 in
10:49 46.6 °F 33.4 °F 29.95 in NNW 1.8 mph 3.5 mph 60 % 0.00 in
10:54 46.5 °F 33.4 °F 29.95 in North 2.4 mph 4.6 mph 60 % 0.00 in
10:59 46.4 °F 33.3 °F 29.95 in North 0.6 mph 3.5 mph 60 % 0.00 in
11:04 46.3 °F 33.2 °F 29.95 in North 0.6 mph 2.3 mph 60 % 0.00 in
11:09 46.1 °F 33.0 °F 29.94 in North 0.7 mph 3.5 mph 60 % 0.00 in
11:14 46.0 °F 33.3 °F 29.94 in Calm   2.3 mph 61 % 0.00 in
11:19 45.7 °F 33.0 °F 29.94 in North 2.6 mph 3.5 mph 61 % 0.00 in
11:24 45.6 °F 33.3 °F 29.93 in NNW 1.5 mph 3.5 mph 62 % 0.00 in
11:29 45.6 °F 33.3 °F 29.93 in NNW 0.5 mph 1.2 mph 62 % 0.00 in
11:34 45.6 °F 33.3 °F 29.93 in North 0.6 mph 2.3 mph 62 % 0.00 in
11:39 45.5 °F 33.2 °F 29.93 in North 0.5 mph 2.3 mph 62 % 0.00 in
11:44 45.5 °F 33.2 °F 29.93 in NNE 0.4 mph 2.3 mph 62 % 0.00 in
11:49 45.4 °F 33.5 °F 29.93 in NNE 0.9 mph 2.3 mph 63 % 0.00 in
11:54 45.4 °F 33.1 °F 29.93 in NNE 0.1 mph 1.2 mph 62 % 0.00 in
11:59 45.4 °F 32.7 °F 29.93 in NNE 1.5 mph 2.3 mph 61 % 0.00 in
12:04 45.4 °F 33.1 °F 29.92 in NNW 1.2 mph 2.3 mph 62 % 0.00 in
12:09 45.3 °F 33.0 °F 29.92 in North 0.9 mph 2.0 mph 62 % 0.00 in
12:14 45.3 °F 33.0 °F 29.92 in NNW 1.1 mph 2.3 mph 62 % 0.00 in
12:19 45.3 °F 33.0 °F 29.92 in NW 1.3 mph 3.5 mph 62 % 0.00 in
12:24 45.3 °F 32.6 °F 29.92 in NW 0.9 mph 3.5 mph 61 % 0.00 in
12:29 45.3 °F 32.6 °F 29.92 in NW 0.1 mph 1.2 mph 61 % 0.00 in
12:34 45.4 °F 33.1 °F 29.91 in Calm   2.3 mph 62 % 0.00 in
12:39 45.4 °F 33.5 °F 29.91 in NNW 1.2 mph 3.0 mph 63 % 0.00 in
12:44 45.5 °F 33.2 °F 29.91 in NNW 0.1 mph 2.3 mph 62 % 0.00 in
12:49 45.6 °F 33.7 °F 29.91 in NNW 0.3 mph 1.2 mph 63 % 0.00 in
12:55 45.8 °F 33.5 °F 29.91 in Calm   3.5 mph 62 % 0.00 in
13:00 45.9 °F 33.2 °F 29.90 in Calm     61 % 0.00 in
13:05 46.0 °F 33.7 °F 29.90 in NNW 0.2 mph 2.3 mph 62 % 0.00 in
13:10 46.1 °F 33.8 °F 29.90 in North 0.6 mph 3.5 mph 62 % 0.00 in
13:15 46.2 °F 33.5 °F 29.90 in NNW 1.2 mph 3.5 mph 61 % 0.00 in
13:20 46.3 °F 33.6 °F 29.90 in Calm   1.2 mph 61 % 0.00 in
13:25 46.4 °F 33.7 °F 29.90 in WNW 1.4 mph 3.5 mph 61 % 0.00 in
13:30 46.5 °F 33.4 °F 29.90 in WNW 0.3 mph 1.2 mph 60 % 0.00 in
13:35 46.6 °F 33.9 °F 29.90 in WNW 0.2 mph 1.0 mph 61 % 0.00 in
13:40 46.7 °F 33.5 °F 29.90 in WNW 0.2 mph 1.2 mph 60 % 0.00 in
13:45 46.8 °F 34.0 °F 29.90 in Calm   1.2 mph 61 % 0.00 in
13:50 47.0 °F 33.8 °F 29.90 in WNW 1.6 mph 3.5 mph 60 % 0.00 in
13:55 47.1 °F 33.1 °F 29.90 in West 1.2 mph 2.3 mph 58 % 0.00 in
14:00 47.1 °F 33.1 °F 29.90 in SW 2.0 mph 3.5 mph 58 % 0.00 in
14:05 47.2 °F 33.2 °F 29.90 in West 0.1 mph 2.3 mph 58 % 0.00 in
14:10 47.3 °F 33.7 °F 29.90 in SW 1.2 mph 3.5 mph 59 % 0.00 in
14:15 47.4 °F 33.4 °F 29.90 in WNW 1.3 mph 3.5 mph 58 % 0.00 in
14:20 47.4 °F 32.9 °F 29.90 in WNW 2.5 mph 4.0 mph 57 % 0.00 in
14:25 47.4 °F 32.9 °F 29.90 in WNW 2.2 mph 3.5 mph 57 % 0.00 in
14:30 47.4 °F 32.9 °F 29.90 in West 0.3 mph 2.3 mph 57 % 0.00 in
14:35 47.4 °F 32.9 °F 29.90 in WSW 2.4 mph 3.0 mph 57 % 0.00 in
14:40 47.2 °F 33.2 °F 29.90 in WSW 1.3 mph 2.0 mph 58 % 0.00 in
14:45 47.0 °F 33.0 °F 29.90 in WSW 0.1 mph 2.0 mph 58 % 0.00 in
14:51 47.0 °F 33.0 °F 29.90 in Calm   1.0 mph 58 % 0.00 in
14:56 46.9 °F 32.9 °F 29.90 in SW 1.0 mph 3.0 mph 58 % 0.00 in
15:01 46.8 °F 33.2 °F 29.90 in West 2.2 mph 3.5 mph 59 % 0.00 in
15:06 46.7 °F 33.1 °F 29.90 in SW 0.1 mph 3.5 mph 59 % 0.00 in
15:11 46.7 °F 33.1 °F 29.90 in WSW 1.9 mph 3.5 mph 59 % 0.00 in
15:16 46.6 °F 33.0 °F 29.90 in Calm     59 % 0.00 in
15:26 46.5 °F 32.9 °F 29.90 in WSW 0.2 mph 1.2 mph 59 % 0.00 in
15:31 46.4 °F 32.8 °F 29.90 in WSW 1.0 mph 3.5 mph 59 % 0.00 in
15:36 46.4 °F 33.3 °F 29.90 in SW 2.7 mph 3.5 mph 60 % 0.00 in
15:41 46.3 °F 33.2 °F 29.90 in SW 0.2 mph 3.5 mph 60 % 0.00 in
15:46 46.3 °F 33.2 °F 29.91 in SW 1.5 mph 3.5 mph 60 % 0.00 in
15:51 46.3 °F 33.2 °F 29.91 in SW 2.8 mph 3.5 mph 60 % 0.00 in
15:56 46.2 °F 33.1 °F 29.91 in SW 2.0 mph 3.5 mph 60 % 0.00 in
16:01 46.1 °F 33.0 °F 29.91 in SW 0.1 mph 1.2 mph 60 % 0.00 in
16:06 46.1 °F 33.4 °F 29.91 in SW 0.6 mph 2.3 mph 61 % 0.00 in
16:11 46.0 °F 33.3 °F 29.91 in West 0.2 mph 1.0 mph 61 % 0.00 in
16:16 45.9 °F 33.2 °F 29.91 in Calm     61 % 0.00 in
16:21 45.9 °F 33.2 °F 29.91 in Calm     61 % 0.00 in
16:31 45.6 °F 33.3 °F 29.91 in Calm     62 % 0.00 in
16:36 45.4 °F 33.1 °F 29.91 in Calm     62 % 0.00 in
16:41 45.2 °F 32.9 °F 29.91 in Calm     62 % 0.00 in
16:46 44.9 °F 32.7 °F 29.91 in Calm     62 % 0.00 in
16:51 44.7 °F 32.9 °F 29.91 in Calm     63 % 0.00 in
16:57 44.3 °F 32.9 °F 29.91 in Calm     64 % 0.00 in
17:07 43.8 °F 32.8 °F 29.91 in West 0.1 mph 1.0 mph 65 % 0.00 in
17:12 43.6 °F 33.0 °F 29.91 in West 1.4 mph 2.3 mph 66 % 0.00 in
17:17 43.4 °F 32.8 °F 29.92 in Calm     66 % 0.00 in
17:22 43.1 °F 32.5 °F 29.92 in Calm     66 % 0.00 in
17:27 42.9 °F 32.3 °F 29.92 in Calm     66 % 0.00 in
17:37 42.5 °F 32.3 °F 29.92 in Calm     67 % 0.00 in
17:42 42.3 °F 32.1 °F 29.92 in Calm     67 % 0.00 in
17:52 41.8 °F 32.0 °F 29.93 in Calm   1.0 mph 68 % 0.00 in
17:57 41.4 °F 31.6 °F 29.93 in Calm   1.2 mph 68 % 0.00 in
18:07 41.0 °F 31.6 °F 29.94 in Calm     69 % 0.00 in
18:17 40.5 °F 31.5 °F 29.93 in Calm     70 % 0.00 in
18:22 40.3 °F 31.3 °F 29.93 in Calm     70 % 0.00 in
18:27 40.0 °F 31.0 °F 29.93 in Calm     70 % 0.00 in
18:32 39.8 °F 31.2 °F 29.93 in Calm     71 % 0.00 in
18:37 39.6 °F 31.0 °F 29.93 in Calm     71 % 0.00 in
18:42 39.4 °F 31.1 °F 29.93 in Calm     72 % 0.00 in
18:47 39.2 °F 31.3 °F 29.94 in Calm     73 % 0.00 in
18:53 39.0 °F 31.1 °F 29.94 in Calm     73 % 0.00 in
18:55 38.9 °F 31.3 °F 29.94 in Calm     74 % 0.00 in
19:01 38.8 °F 31.6 °F 29.95 in Calm     75 % 0.00 in
19:06 38.8 °F 31.9 °F 29.94 in Calm     76 % 0.00 in
19:11 38.7 °F 31.5 °F 29.93 in Calm     75 % 0.00 in
19:16 38.7 °F 31.5 °F 29.93 in Calm     75 % 0.00 in
19:21 38.7 °F 31.8 °F 29.93 in Calm     76 % 0.00 in
19:27 38.6 °F 31.7 °F 29.94 in Calm   1.2 mph 76 % 0.00 in
19:32 38.6 °F 31.7 °F 29.94 in Calm     76 % 0.00 in
19:37 38.6 °F 31.7 °F 29.94 in Calm     76 % 0.00 in
19:42 38.6 °F 31.7 °F 29.94 in Calm     76 % 0.00 in
19:47 38.7 °F 31.8 °F 29.93 in Calm     76 % 0.00 in
19:52 38.7 °F 31.8 °F 29.93 in Calm     76 % 0.00 in
19:57 38.7 °F 31.8 °F 29.94 in Calm   1.2 mph 76 % 0.00 in
20:02 38.8 °F 32.2 °F 29.94 in Calm     77 % 0.00 in
20:07 38.9 °F 32.3 °F 29.94 in WSW 1.5 mph 3.5 mph 77 % 0.00 in
20:12 39.1 °F 32.5 °F 29.94 in SW 2.2 mph 3.5 mph 77 % 0.00 in
20:17 39.2 °F 32.6 °F 29.94 in SW 0.7 mph 3.5 mph 77 % 0.00 in
20:22 39.3 °F 32.7 °F 29.95 in SW 1.0 mph 3.5 mph 77 % 0.00 in
20:27 39.5 °F 32.9 °F 29.95 in SW 0.8 mph 2.3 mph 77 % 0.00 in
20:32 39.7 °F 33.1 °F 29.95 in Calm     77 % 0.00 in
20:37 39.9 °F 33.3 °F 29.95 in SW 0.1 mph 2.3 mph 77 % 0.00 in
20:42 40.1 °F 33.5 °F 29.95 in Calm   1.2 mph 77 % 0.00 in
20:47 40.3 °F 33.7 °F 29.95 in Calm     77 % 0.00 in
20:52 40.5 °F 33.5 °F 29.95 in Calm   1.0 mph 76 % 0.00 in
20:57 40.7 °F 33.7 °F 29.95 in Calm     76 % 0.00 in
21:02 41.0 °F 33.7 °F 29.93 in SW 1.0 mph 2.3 mph 75 % 0.00 in
21:07 41.1 °F 33.8 °F 29.93 in Calm     75 % 0.00 in
21:12 41.3 °F 34.0 °F 29.94 in SSW 1.2 mph 3.5 mph 75 % 0.00 in
21:17 41.4 °F 34.1 °F 29.94 in Calm   1.2 mph 75 % 0.00 in
21:22 41.5 °F 34.2 °F 29.94 in SSW 0.1 mph 2.3 mph 75 % 0.00 in
21:28 41.6 °F 33.9 °F 29.95 in SW 1.4 mph 3.5 mph 74 % 0.00 in
21:33 41.8 °F 34.1 °F 29.95 in Calm   2.3 mph 74 % 0.00 in
21:48 42.1 °F 34.1 °F 29.95 in SW 0.1 mph 2.3 mph 73 % 0.00 in
21:53 42.2 °F 34.2 °F 29.95 in Calm     73 % 0.00 in
21:58 42.2 °F 34.2 °F 29.95 in Calm     73 % 0.00 in
22:03 42.3 °F 34.3 °F 29.95 in Calm     73 % 0.00 in
22:08 42.3 °F 34.3 °F 29.95 in Calm     73 % 0.00 in
22:13 42.3 °F 34.3 °F 29.95 in Calm     73 % 0.00 in
22:18 42.3 °F 34.3 °F 29.94 in Calm   1.2 mph 73 % 0.00 in
22:23 42.3 °F 34.3 °F 29.94 in Calm     73 % 0.00 in
22:28 42.2 °F 34.2 °F 29.94 in Calm     73 % 0.00 in
22:33 42.2 °F 34.5 °F 29.94 in Calm     74 % 0.00 in
22:38 42.1 °F 34.4 °F 29.93 in Calm     74 % 0.00 in
22:43 42.1 °F 34.4 °F 29.93 in Calm     74 % 0.00 in
22:48 42.0 °F 34.3 °F 29.94 in Calm     74 % 0.00 in
22:53 42.0 °F 34.3 °F 29.94 in Calm     74 % 0.00 in
23:08 42.0 °F 34.3 °F 29.93 in Calm     74 % 0.00 in
23:13 42.0 °F 34.3 °F 29.93 in Calm     74 % 0.00 in
23:18 42.0 °F 34.6 °F 29.93 in Calm     75 % 0.00 in
23:23 42.1 °F 34.7 °F 29.93 in Calm     75 % 0.00 in
23:28 42.1 °F 35.1 °F 29.93 in Calm     76 % 0.00 in
23:34 42.1 °F 35.4 °F 29.94 in Calm     77 % 0.00 in
23:39 42.1 °F 35.4 °F 29.94 in Calm     77 % 0.00 in
23:44 42.1 °F 35.7 °F 29.94 in Calm     78 % 0.00 in
23:49 42.0 °F 35.6 °F 29.94 in Calm     78 % 0.00 in
23:54 41.9 °F 35.9 °F 29.94 in Calm     79 % 0.00 in
23:59 41.9 °F 36.2 °F 29.94 in Calm     80 % 0.00 in
Crab Meadow Weather
Compliments of Weather Underground - 2.75 mb

Script developed by  Jim McMurry - jmcmurry@mwt.net Adapted for the template by  Wim van der Kuil - Leuven-Template.eu

Lightning: The chances of being hit by lightning is 1:28,500.